Accueil
METAR-TAF:

METAR-TAF

Aéroports :

Plaisance, Italie

latitude: 44-55N, longitude: 009-44E, altitude: 134 m

Observation

Le bulletin a été fait il y a 34 minutes, à 15:55 UTC
Vent 3 kt de sud-est
Température 2°C
Humidité 80%
Pression 1007 hPa
Visibilité: 4000 m
Nuages épars à une hauteur de 500 ft
Nuages fragmentés à une hauteur de 1200 ft
faible bruine, brume

METAR: LIMS 221555Z 14003KT 4000 -DZ BR SCT005 BKN012 02/M01 Q1007 RMK OVC VIS MIN 4000 WIND THR30 /////KT GRN

Heure: 17:29 (16:29 UTC)


TAF: absent

Observations et prévisions météorologiques de plus de 4000 aéroports (messages METAR et TAF).

Les stations disponibles sont représentées par des disques jaunes et rouges sur la carte.

Passer la souris dessus pour voir le nom de la station.

Cliquer dessus pour voir les observations et prévisions météorologiques.

Pour changer de carte: cliquez sur les boutons verts avec une croix noire pour zoomer, sur le bouton vert avec un tiret pour effectuer un zoom arrière, ou sur les flèches vertes pour les cartes adjacentes.


METAR-TAF: